If you wish to contribute or participate in the discussions about articles you are invited to join SKYbrary as a registered user

RAF Benson

From SKYbrary Wiki
EGUB
Airport
ICAO: EGUB
Summary
Name RAF Benson
Region Europe
Territory United Kingdom GB.gif
Location Oxfordshire, United Kingdom
Serving
Coordinates 51° 36' 58.0032", -1° 5' 44.9988"
Runways
Designator Length Width Surface ROPS
1/19 1823 m5,980.971 ft 46 m150.919 ft ASP /
6/24 1458 m4,783.465 ft 30 m98.425 ft ASP /
METAR
Observation EGUB 241650Z AUTO 14007KT 9999 // FEW048/// SCT110/// 19/12 Q1017
Station Benson
Date/Time 24 September 2017 16:50:00
Wind direction 140°
Wind speed 07 kts
Lowest cloud amount few clouds
Temperature 19°C
Dew point 12°C
Humidity 63%
QNH 1017 hPa
Weather condition n/a

WX
Tag(s) Fog

RAF Benson

ICAO: EGUB IATA: BEX

Description

Military airbase South East of Oxford hosting support helicopters and basic training aircraft.

Climatology

Temperate Marine climate/Oceanic climate (Köppen climate classification Cfb). Moderately cool summer and comparatively warm winter with a temperature range of only 14°C287.15 K
57.2 °F
516.87 °R
. Prevailing south-westerly winds from the Atlantic Ocean.

Maps

Terrain

Loading map...

Airport Layout

Loading map...


Accidents & Serious Incidents at or in vicinity of EGUB

None on SKYbrary